Aviation Digital Data Service (ADDS)

Output produced by METARs form (2052 UTC 29 May 2017)
found at http://www.aviationweather.gov/adds/metars/
 
TAF SVBC 291600Z 2918/3018 07010KT 9999 SCT016 TX36/18Z TN25/09Z 
     BECMG 2918/2922 12005KT FEW016 SCT100
       
TAF SVMI 291600Z 2918/3018 05010KT 9999 SCT016 TX33/18Z TN24/08Z 
     BECMG 2918/2922 07005KT FEW016 BKN100
       
TAF SVMC 291600Z 2918/3018 28005KT 9999 SCT016 SCT100 TX34/19Z TN25/09Z 
     BECMG 2918/2922 34005KT
       
TAF SVMG 291600Z 2918/3018 05010KT 9999 FEW016 TX34/18Z TN25/08Z 
     BECMG 2918/2922 02005KT SCT016 SCT100
       
TAF SVJC 291600Z 2918/3018 07015KT 9999 FEW016 SCT100 TX34/19Z TN25/08Z 
     BECMG 2918/2922 04010KT SCT020
       
TAF SVSA 291600Z 2918/3018 18005KT 9999 SCT016 TX34/19Z TN24/08Z 
     BECMG 2918/2922 25005KT 9000 VCDZ BKN020